sensor_id;sensor_type;location;lat;lon;timestamp;P1;durP1;ratioP1;P2;durP2;ratioP2
68825;SDS011;55841;53.392;10.086;2022-08-19T00:01:28;11.65;;;4.45;;
68825;SDS011;55841;53.392;10.086;2022-08-19T00:03:55;11.95;;;4.30;;
68825;SDS011;55841;53.392;10.086;2022-08-19T00:06:25;10.43;;;3.80;;
68825;SDS011;55841;53.392;10.086;2022-08-19T00:08:51;8.27;;;3.65;;
68825;SDS011;55841;53.392;10.086;2022-08-19T00:11:17;11.68;;;4.53;;
68825;SDS011;55841;53.392;10.086;2022-08-19T00:13:43;11.55;;;4.22;;
68825;SDS011;55841;53.392;10.086;2022-08-19T00:16:08;10.80;;;4.28;;
68825;SDS011;55841;53.392;10.086;2022-08-19T00:18:34;11.05;;;3.92;;
68825;SDS011;55841;53.392;10.086;2022-08-19T00:21:00;9.45;;;4.03;;
68825;SDS011;55841;53.392;10.086;2022-08-19T00:23:26;10.68;;;3.83;;
68825;SDS011;55841;53.392;10.086;2022-08-19T00:25:51;10.48;;;3.90;;
68825;SDS011;55841;53.392;10.086;2022-08-19T00:28:17;9.90;;;4.32;;
68825;SDS011;55841;53.392;10.086;2022-08-19T00:30:43;9.00;;;3.58;;
68825;SDS011;55841;53.392;10.086;2022-08-19T00:33:09;12.85;;;4.28;;
68825;SDS011;55841;53.392;10.086;2022-08-19T00:35:35;11.20;;;4.15;;
68825;SDS011;55841;53.392;10.086;2022-08-19T00:38:00;10.45;;;4.18;;
68825;SDS011;55841;53.392;10.086;2022-08-19T00:40:26;12.75;;;4.40;;
68825;SDS011;55841;53.392;10.086;2022-08-19T00:42:51;11.25;;;4.10;;
68825;SDS011;55841;53.392;10.086;2022-08-19T00:45:18;10.52;;;4.03;;
68825;SDS011;55841;53.392;10.086;2022-08-19T00:47:46;9.95;;;4.75;;
68825;SDS011;55841;53.392;10.086;2022-08-19T00:50:12;12.82;;;4.93;;
68825;SDS011;55841;53.392;10.086;2022-08-19T00:52:43;11.50;;;4.50;;
68825;SDS011;55841;53.392;10.086;2022-08-19T00:55:21;11.25;;;4.32;;
68825;SDS011;55841;53.392;10.086;2022-08-19T00:58:08;13.05;;;4.70;;
68825;SDS011;55841;53.392;10.086;2022-08-19T01:00:37;14.27;;;5.05;;
68825;SDS011;55841;53.392;10.086;2022-08-19T01:05:30;11.88;;;4.78;;
68825;SDS011;55841;53.392;10.086;2022-08-19T01:07:56;12.13;;;4.55;;
68825;SDS011;55841;53.392;10.086;2022-08-19T01:10:26;12.88;;;5.00;;
68825;SDS011;55841;53.392;10.086;2022-08-19T01:12:54;12.63;;;5.80;;
68825;SDS011;55841;53.392;10.086;2022-08-19T01:15:23;12.95;;;5.68;;
68825;SDS011;55841;53.392;10.086;2022-08-19T01:17:53;12.45;;;5.18;;
68825;SDS011;55841;53.392;10.086;2022-08-19T01:20:22;12.35;;;4.90;;
68825;SDS011;55841;53.392;10.086;2022-08-19T01:22:50;11.55;;;4.82;;
68825;SDS011;55841;53.392;10.086;2022-08-19T01:25:19;16.95;;;5.20;;
68825;SDS011;55841;53.392;10.086;2022-08-19T01:27:49;13.77;;;5.10;;
68825;SDS011;55841;53.392;10.086;2022-08-19T01:30:34;12.43;;;5.00;;
68825;SDS011;55841;53.392;10.086;2022-08-19T01:33:01;14.38;;;4.50;;
68825;SDS011;55841;53.392;10.086;2022-08-19T01:35:27;10.93;;;4.55;;
68825;SDS011;55841;53.392;10.086;2022-08-19T01:37:56;12.82;;;4.53;;
68825;SDS011;55841;53.392;10.086;2022-08-19T01:40:24;11.82;;;4.65;;
68825;SDS011;55841;53.392;10.086;2022-08-19T01:42:53;12.60;;;4.45;;
68825;SDS011;55841;53.392;10.086;2022-08-19T01:45:20;13.40;;;4.93;;
68825;SDS011;55841;53.392;10.086;2022-08-19T01:47:47;12.15;;;4.32;;
68825;SDS011;55841;53.392;10.086;2022-08-19T01:52:39;10.75;;;4.15;;
68825;SDS011;55841;53.392;10.086;2022-08-19T01:55:07;12.90;;;4.35;;
68825;SDS011;55841;53.392;10.086;2022-08-19T01:57:35;12.48;;;4.57;;
68825;SDS011;55841;53.392;10.086;2022-08-19T02:00:03;12.30;;;4.90;;
68825;SDS011;55841;53.392;10.086;2022-08-19T02:02:31;10.77;;;4.35;;
68825;SDS011;55841;53.392;10.086;2022-08-19T02:04:56;11.68;;;4.18;;
68825;SDS011;55841;53.392;10.086;2022-08-19T02:07:22;11.85;;;4.43;;
68825;SDS011;55841;53.392;10.086;2022-08-19T02:09:47;13.73;;;4.57;;
68825;SDS011;55841;53.392;10.086;2022-08-19T02:12:13;11.10;;;4.43;;
68825;SDS011;55841;53.392;10.086;2022-08-19T02:17:05;13.02;;;4.88;;
68825;SDS011;55841;53.392;10.086;2022-08-19T02:19:31;13.60;;;5.90;;
68825;SDS011;55841;53.392;10.086;2022-08-19T02:21:57;14.00;;;5.95;;
68825;SDS011;55841;53.392;10.086;2022-08-19T02:26:49;13.77;;;5.78;;
68825;SDS011;55841;53.392;10.086;2022-08-19T02:29:14;16.15;;;5.57;;
68825;SDS011;55841;53.392;10.086;2022-08-19T02:31:40;14.35;;;5.05;;
68825;SDS011;55841;53.392;10.086;2022-08-19T02:34:05;17.67;;;5.72;;
68825;SDS011;55841;53.392;10.086;2022-08-19T02:36:31;13.63;;;5.60;;
68825;SDS011;55841;53.392;10.086;2022-08-19T02:38:57;12.90;;;5.43;;
68825;SDS011;55841;53.392;10.086;2022-08-19T02:41:24;12.20;;;5.00;;
68825;SDS011;55841;53.392;10.086;2022-08-19T02:43:51;13.55;;;4.93;;
68825;SDS011;55841;53.392;10.086;2022-08-19T02:46:18;16.95;;;5.78;;
68825;SDS011;55841;53.392;10.086;2022-08-19T02:48:49;22.08;;;7.00;;
68825;SDS011;55841;53.392;10.086;2022-08-19T02:51:21;15.77;;;5.70;;
68825;SDS011;55841;53.392;10.086;2022-08-19T02:53:49;16.02;;;6.13;;
68825;SDS011;55841;53.392;10.086;2022-08-19T02:56:15;13.05;;;5.20;;
68825;SDS011;55841;53.392;10.086;2022-08-19T02:58:40;13.80;;;4.88;;
68825;SDS011;55841;53.392;10.086;2022-08-19T03:01:06;13.82;;;6.22;;
68825;SDS011;55841;53.392;10.086;2022-08-19T03:03:32;14.20;;;5.50;;
68825;SDS011;55841;53.392;10.086;2022-08-19T03:06:06;14.32;;;5.85;;
68825;SDS011;55841;53.392;10.086;2022-08-19T03:08:37;15.35;;;5.28;;
68825;SDS011;55841;53.392;10.086;2022-08-19T03:11:03;16.13;;;6.18;;
68825;SDS011;55841;53.392;10.086;2022-08-19T03:13:29;19.73;;;6.05;;
68825;SDS011;55841;53.392;10.086;2022-08-19T03:15:54;15.63;;;5.63;;
68825;SDS011;55841;53.392;10.086;2022-08-19T03:18:20;13.60;;;5.78;;
68825;SDS011;55841;53.392;10.086;2022-08-19T03:20:47;14.52;;;5.70;;
68825;SDS011;55841;53.392;10.086;2022-08-19T03:23:15;17.67;;;6.78;;
68825;SDS011;55841;53.392;10.086;2022-08-19T03:25:43;19.10;;;7.07;;
68825;SDS011;55841;53.392;10.086;2022-08-19T03:28:13;22.00;;;8.20;;
68825;SDS011;55841;53.392;10.086;2022-08-19T03:30:40;18.70;;;8.63;;
68825;SDS011;55841;53.392;10.086;2022-08-19T03:33:07;23.52;;;7.97;;
68825;SDS011;55841;53.392;10.086;2022-08-19T03:35:34;18.80;;;7.38;;
68825;SDS011;55841;53.392;10.086;2022-08-19T03:38:00;23.17;;;8.85;;
68825;SDS011;55841;53.392;10.086;2022-08-19T03:40:25;24.98;;;10.18;;
68825;SDS011;55841;53.392;10.086;2022-08-19T03:42:51;21.20;;;8.63;;
68825;SDS011;55841;53.392;10.086;2022-08-19T03:45:17;21.75;;;8.85;;
68825;SDS011;55841;53.392;10.086;2022-08-19T03:47:42;20.88;;;8.98;;
68825;SDS011;55841;53.392;10.086;2022-08-19T03:50:08;22.92;;;9.55;;
68825;SDS011;55841;53.392;10.086;2022-08-19T03:52:34;27.02;;;10.30;;
68825;SDS011;55841;53.392;10.086;2022-08-19T03:54:59;20.58;;;8.23;;
68825;SDS011;55841;53.392;10.086;2022-08-19T03:57:25;19.63;;;8.27;;
68825;SDS011;55841;53.392;10.086;2022-08-19T03:59:50;23.45;;;9.25;;
68825;SDS011;55841;53.392;10.086;2022-08-19T04:02:16;23.48;;;9.23;;
68825;SDS011;55841;53.392;10.086;2022-08-19T04:04:42;24.23;;;10.07;;
68825;SDS011;55841;53.392;10.086;2022-08-19T04:07:08;21.15;;;9.10;;
68825;SDS011;55841;53.392;10.086;2022-08-19T04:09:36;23.98;;;9.82;;
68825;SDS011;55841;53.392;10.086;2022-08-19T04:12:02;22.92;;;8.95;;
68825;SDS011;55841;53.392;10.086;2022-08-19T04:14:29;20.17;;;9.15;;
68825;SDS011;55841;53.392;10.086;2022-08-19T04:16:54;29.30;;;10.82;;
68825;SDS011;55841;53.392;10.086;2022-08-19T04:19:20;25.65;;;9.68;;
68825;SDS011;55841;53.392;10.086;2022-08-19T04:21:49;21.30;;;9.02;;
68825;SDS011;55841;53.392;10.086;2022-08-19T04:24:17;20.95;;;9.55;;
68825;SDS011;55841;53.392;10.086;2022-08-19T04:26:43;26.88;;;10.02;;
68825;SDS011;55841;53.392;10.086;2022-08-19T04:29:10;23.02;;;9.77;;
68825;SDS011;55841;53.392;10.086;2022-08-19T04:31:42;25.42;;;10.80;;
68825;SDS011;55841;53.392;10.086;2022-08-19T04:34:09;24.15;;;10.55;;
68825;SDS011;55841;53.392;10.086;2022-08-19T04:36:36;28.75;;;10.90;;
68825;SDS011;55841;53.392;10.086;2022-08-19T04:39:04;28.95;;;10.10;;
68825;SDS011;55841;53.392;10.086;2022-08-19T04:41:32;26.27;;;11.65;;
68825;SDS011;55841;53.392;10.086;2022-08-19T04:43:58;30.20;;;11.85;;
68825;SDS011;55841;53.392;10.086;2022-08-19T04:46:23;30.35;;;12.07;;
68825;SDS011;55841;53.392;10.086;2022-08-19T04:48:49;23.70;;;10.00;;
68825;SDS011;55841;53.392;10.086;2022-08-19T04:51:14;25.10;;;10.68;;
68825;SDS011;55841;53.392;10.086;2022-08-19T04:53:41;24.60;;;9.65;;
68825;SDS011;55841;53.392;10.086;2022-08-19T04:56:12;27.38;;;11.07;;
68825;SDS011;55841;53.392;10.086;2022-08-19T04:58:40;29.75;;;10.95;;
68825;SDS011;55841;53.392;10.086;2022-08-19T05:01:07;26.73;;;10.98;;
68825;SDS011;55841;53.392;10.086;2022-08-19T05:03:33;30.67;;;11.85;;
68825;SDS011;55841;53.392;10.086;2022-08-19T05:06:09;27.63;;;10.65;;
68825;SDS011;55841;53.392;10.086;2022-08-19T05:08:37;27.67;;;11.70;;
68825;SDS011;55841;53.392;10.086;2022-08-19T05:11:09;23.95;;;9.27;;
68825;SDS011;55841;53.392;10.086;2022-08-19T05:13:36;23.52;;;9.93;;
68825;SDS011;55841;53.392;10.086;2022-08-19T05:18:28;28.10;;;11.73;;
68825;SDS011;55841;53.392;10.086;2022-08-19T05:20:54;32.92;;;12.82;;
68825;SDS011;55841;53.392;10.086;2022-08-19T05:23:19;29.05;;;11.98;;
68825;SDS011;55841;53.392;10.086;2022-08-19T05:25:45;27.48;;;11.75;;
68825;SDS011;55841;53.392;10.086;2022-08-19T05:28:10;31.70;;;12.90;;
68825;SDS011;55841;53.392;10.086;2022-08-19T05:30:36;30.00;;;13.13;;
68825;SDS011;55841;53.392;10.086;2022-08-19T05:33:01;31.10;;;13.25;;
68825;SDS011;55841;53.392;10.086;2022-08-19T05:35:27;33.03;;;13.95;;
68825;SDS011;55841;53.392;10.086;2022-08-19T05:37:53;32.58;;;12.77;;
68825;SDS011;55841;53.392;10.086;2022-08-19T05:40:18;29.92;;;12.60;;
68825;SDS011;55841;53.392;10.086;2022-08-19T05:42:44;32.97;;;13.10;;
68825;SDS011;55841;53.392;10.086;2022-08-19T05:45:09;30.55;;;13.45;;
68825;SDS011;55841;53.392;10.086;2022-08-19T05:47:35;28.42;;;12.65;;
68825;SDS011;55841;53.392;10.086;2022-08-19T05:50:00;34.22;;;14.05;;
68825;SDS011;55841;53.392;10.086;2022-08-19T05:52:27;31.17;;;14.38;;
68825;SDS011;55841;53.392;10.086;2022-08-19T05:54:53;32.45;;;13.90;;
68825;SDS011;55841;53.392;10.086;2022-08-19T05:59:44;30.13;;;13.15;;
68825;SDS011;55841;53.392;10.086;2022-08-19T06:02:10;36.10;;;15.85;;
68825;SDS011;55841;53.392;10.086;2022-08-19T06:04:36;30.30;;;13.45;;
68825;SDS011;55841;53.392;10.086;2022-08-19T06:07:01;36.75;;;14.68;;
68825;SDS011;55841;53.392;10.086;2022-08-19T06:09:27;32.92;;;14.15;;
68825;SDS011;55841;53.392;10.086;2022-08-19T06:11:57;30.30;;;13.75;;
68825;SDS011;55841;53.392;10.086;2022-08-19T06:14:24;36.47;;;13.70;;
68825;SDS011;55841;53.392;10.086;2022-08-19T06:16:54;38.30;;;15.05;;
68825;SDS011;55841;53.392;10.086;2022-08-19T06:19:21;33.50;;;15.07;;
68825;SDS011;55841;53.392;10.086;2022-08-19T06:21:48;30.88;;;13.32;;
68825;SDS011;55841;53.392;10.086;2022-08-19T06:24:15;29.50;;;14.05;;
68825;SDS011;55841;53.392;10.086;2022-08-19T06:26:45;33.90;;;15.23;;
68825;SDS011;55841;53.392;10.086;2022-08-19T06:29:13;30.83;;;14.73;;
68825;SDS011;55841;53.392;10.086;2022-08-19T06:31:41;31.90;;;12.75;;
68825;SDS011;55841;53.392;10.086;2022-08-19T06:34:08;33.72;;;14.43;;
68825;SDS011;55841;53.392;10.086;2022-08-19T06:36:36;32.53;;;14.55;;
68825;SDS011;55841;53.392;10.086;2022-08-19T06:39:07;33.05;;;13.77;;
68825;SDS011;55841;53.392;10.086;2022-08-19T06:41:36;29.23;;;13.70;;
68825;SDS011;55841;53.392;10.086;2022-08-19T06:44:04;30.55;;;13.88;;
68825;SDS011;55841;53.392;10.086;2022-08-19T06:46:30;31.67;;;13.98;;
68825;SDS011;55841;53.392;10.086;2022-08-19T06:48:56;36.38;;;14.57;;
68825;SDS011;55841;53.392;10.086;2022-08-19T06:51:22;35.92;;;14.15;;
68825;SDS011;55841;53.392;10.086;2022-08-19T06:53:49;38.13;;;14.32;;
68825;SDS011;55841;53.392;10.086;2022-08-19T06:56:17;31.23;;;14.25;;
68825;SDS011;55841;53.392;10.086;2022-08-19T06:58:44;28.15;;;13.85;;
68825;SDS011;55841;53.392;10.086;2022-08-19T07:01:10;34.33;;;14.68;;
68825;SDS011;55841;53.392;10.086;2022-08-19T07:03:36;33.28;;;14.00;;
68825;SDS011;55841;53.392;10.086;2022-08-19T07:06:13;34.13;;;15.38;;
68825;SDS011;55841;53.392;10.086;2022-08-19T07:08:39;33.17;;;14.60;;
68825;SDS011;55841;53.392;10.086;2022-08-19T07:11:06;32.22;;;15.00;;
68825;SDS011;55841;53.392;10.086;2022-08-19T07:13:33;35.20;;;14.52;;
68825;SDS011;55841;53.392;10.086;2022-08-19T07:16:02;33.60;;;15.70;;
68825;SDS011;55841;53.392;10.086;2022-08-19T07:18:31;29.00;;;14.52;;
68825;SDS011;55841;53.392;10.086;2022-08-19T07:21:07;35.00;;;15.30;;
68825;SDS011;55841;53.392;10.086;2022-08-19T07:23:35;36.88;;;15.13;;
68825;SDS011;55841;53.392;10.086;2022-08-19T07:26:05;29.98;;;14.05;;
68825;SDS011;55841;53.392;10.086;2022-08-19T07:28:40;32.90;;;14.70;;
68825;SDS011;55841;53.392;10.086;2022-08-19T07:31:07;31.50;;;13.80;;
68825;SDS011;55841;53.392;10.086;2022-08-19T07:33:35;31.10;;;14.15;;
68825;SDS011;55841;53.392;10.086;2022-08-19T07:36:01;36.10;;;15.00;;
68825;SDS011;55841;53.392;10.086;2022-08-19T07:38:27;36.70;;;14.88;;
68825;SDS011;55841;53.392;10.086;2022-08-19T07:40:53;34.00;;;14.68;;
68825;SDS011;55841;53.392;10.086;2022-08-19T07:43:18;33.20;;;13.13;;
68825;SDS011;55841;53.392;10.086;2022-08-19T07:45:44;26.73;;;12.75;;
68825;SDS011;55841;53.392;10.086;2022-08-19T07:48:10;32.30;;;13.27;;
68825;SDS011;55841;53.392;10.086;2022-08-19T07:50:35;34.78;;;13.32;;
68825;SDS011;55841;53.392;10.086;2022-08-19T07:53:01;28.48;;;12.48;;
68825;SDS011;55841;53.392;10.086;2022-08-19T07:55:26;26.00;;;10.93;;
68825;SDS011;55841;53.392;10.086;2022-08-19T07:57:52;28.25;;;11.27;;
68825;SDS011;55841;53.392;10.086;2022-08-19T08:00:17;25.25;;;11.00;;
68825;SDS011;55841;53.392;10.086;2022-08-19T08:02:43;25.98;;;11.20;;
68825;SDS011;55841;53.392;10.086;2022-08-19T08:05:09;26.25;;;10.13;;
68825;SDS011;55841;53.392;10.086;2022-08-19T08:07:35;28.70;;;11.48;;
68825;SDS011;55841;53.392;10.086;2022-08-19T08:10:01;23.52;;;11.05;;
68825;SDS011;55841;53.392;10.086;2022-08-19T08:12:33;22.75;;;9.25;;
68825;SDS011;55841;53.392;10.086;2022-08-19T08:15:04;23.83;;;9.43;;
68825;SDS011;55841;53.392;10.086;2022-08-19T08:17:32;23.77;;;9.10;;
68825;SDS011;55841;53.392;10.086;2022-08-19T08:19:59;22.88;;;9.48;;
68825;SDS011;55841;53.392;10.086;2022-08-19T08:22:24;28.80;;;9.63;;
68825;SDS011;55841;53.392;10.086;2022-08-19T08:24:50;19.83;;;9.68;;
68825;SDS011;55841;53.392;10.086;2022-08-19T08:27:15;23.33;;;9.07;;
68825;SDS011;55841;53.392;10.086;2022-08-19T08:29:41;23.77;;;8.75;;
68825;SDS011;55841;53.392;10.086;2022-08-19T08:32:06;25.95;;;9.77;;
68825;SDS011;55841;53.392;10.086;2022-08-19T08:34:32;26.80;;;10.27;;
68825;SDS011;55841;53.392;10.086;2022-08-19T08:36:57;23.27;;;8.70;;
68825;SDS011;55841;53.392;10.086;2022-08-19T08:39:23;19.60;;;7.97;;
68825;SDS011;55841;53.392;10.086;2022-08-19T08:42:50;19.02;;;7.80;;
68825;SDS011;55841;53.392;10.086;2022-08-19T08:44:58;22.48;;;8.57;;
68825;SDS011;55841;53.392;10.086;2022-08-19T08:47:29;22.58;;;8.85;;
68825;SDS011;55841;53.392;10.086;2022-08-19T08:50:02;23.98;;;8.80;;
68825;SDS011;55841;53.392;10.086;2022-08-19T08:52:34;22.83;;;8.23;;
68825;SDS011;55841;53.392;10.086;2022-08-19T08:55:05;27.67;;;9.63;;
68825;SDS011;55841;53.392;10.086;2022-08-19T08:57:36;25.80;;;9.75;;
68825;SDS011;55841;53.392;10.086;2022-08-19T09:00:15;25.63;;;9.65;;
68825;SDS011;55841;53.392;10.086;2022-08-19T09:03:02;27.88;;;9.38;;
68825;SDS011;55841;53.392;10.086;2022-08-19T09:05:40;25.17;;;10.20;;
68825;SDS011;55841;53.392;10.086;2022-08-19T09:08:35;25.10;;;10.05;;
68825;SDS011;55841;53.392;10.086;2022-08-19T09:14:34;25.15;;;10.32;;
68825;SDS011;55841;53.392;10.086;2022-08-19T09:17:03;26.55;;;10.00;;
68825;SDS011;55841;53.392;10.086;2022-08-19T09:19:29;33.00;;;13.52;;
68825;SDS011;55841;53.392;10.086;2022-08-19T09:21:55;32.70;;;11.82;;
68825;SDS011;55841;53.392;10.086;2022-08-19T09:24:21;26.95;;;10.90;;
68825;SDS011;55841;53.392;10.086;2022-08-19T09:26:47;26.95;;;11.95;;
68825;SDS011;55841;53.392;10.086;2022-08-19T09:29:12;31.08;;;12.13;;
68825;SDS011;55841;53.392;10.086;2022-08-19T09:31:38;30.50;;;11.88;;
68825;SDS011;55841;53.392;10.086;2022-08-19T09:34:04;28.25;;;12.38;;
68825;SDS011;55841;53.392;10.086;2022-08-19T09:36:31;38.35;;;13.45;;
68825;SDS011;55841;53.392;10.086;2022-08-19T09:38:57;31.02;;;13.68;;
68825;SDS011;55841;53.392;10.086;2022-08-19T09:41:23;32.10;;;13.45;;
68825;SDS011;55841;53.392;10.086;2022-08-19T09:43:51;34.45;;;14.43;;
68825;SDS011;55841;53.392;10.086;2022-08-19T09:46:18;30.75;;;13.00;;
68825;SDS011;55841;53.392;10.086;2022-08-19T09:48:44;31.25;;;13.23;;
68825;SDS011;55841;53.392;10.086;2022-08-19T09:51:11;30.45;;;12.27;;
68825;SDS011;55841;53.392;10.086;2022-08-19T09:53:38;30.02;;;13.32;;
68825;SDS011;55841;53.392;10.086;2022-08-19T09:56:05;33.40;;;13.40;;
68825;SDS011;55841;53.392;10.086;2022-08-19T09:58:32;27.15;;;13.35;;
68825;SDS011;55841;53.392;10.086;2022-08-19T10:00:58;31.17;;;13.73;;
68825;SDS011;55841;53.392;10.086;2022-08-19T10:03:25;28.20;;;11.85;;
68825;SDS011;55841;53.392;10.086;2022-08-19T10:05:52;26.95;;;12.10;;
68825;SDS011;55841;53.392;10.086;2022-08-19T10:08:19;30.35;;;11.60;;
68825;SDS011;55841;53.392;10.086;2022-08-19T10:10:48;30.00;;;12.30;;
68825;SDS011;55841;53.392;10.086;2022-08-19T10:15:41;31.70;;;12.05;;
68825;SDS011;55841;53.392;10.086;2022-08-19T10:18:07;30.17;;;12.20;;
68825;SDS011;55841;53.392;10.086;2022-08-19T10:20:32;31.10;;;12.88;;
68825;SDS011;55841;53.392;10.086;2022-08-19T10:22:58;32.20;;;14.02;;
68825;SDS011;55841;53.392;10.086;2022-08-19T10:25:24;30.13;;;13.82;;
68825;SDS011;55841;53.392;10.086;2022-08-19T10:27:49;29.98;;;13.85;;
68825;SDS011;55841;53.392;10.086;2022-08-19T10:30:15;28.25;;;12.02;;
68825;SDS011;55841;53.392;10.086;2022-08-19T10:32:40;32.30;;;14.55;;
68825;SDS011;55841;53.392;10.086;2022-08-19T10:35:06;30.77;;;15.15;;
68825;SDS011;55841;53.392;10.086;2022-08-19T10:37:32;34.85;;;15.82;;
68825;SDS011;55841;53.392;10.086;2022-08-19T10:39:57;31.52;;;14.93;;
68825;SDS011;55841;53.392;10.086;2022-08-19T10:42:23;33.20;;;15.10;;
68825;SDS011;55841;53.392;10.086;2022-08-19T10:44:48;32.55;;;15.13;;
68825;SDS011;55841;53.392;10.086;2022-08-19T10:47:14;31.75;;;14.52;;
68825;SDS011;55841;53.392;10.086;2022-08-19T10:49:39;30.15;;;14.70;;
68825;SDS011;55841;53.392;10.086;2022-08-19T10:52:05;31.77;;;16.02;;
68825;SDS011;55841;53.392;10.086;2022-08-19T10:54:32;32.50;;;15.70;;
68825;SDS011;55841;53.392;10.086;2022-08-19T10:56:57;33.40;;;17.65;;
68825;SDS011;55841;53.392;10.086;2022-08-19T10:59:27;32.42;;;16.95;;
68825;SDS011;55841;53.392;10.086;2022-08-19T11:01:58;30.00;;;16.48;;
68825;SDS011;55841;53.392;10.086;2022-08-19T11:04:24;30.92;;;16.33;;
68825;SDS011;55841;53.392;10.086;2022-08-19T11:06:50;32.28;;;17.80;;
68825;SDS011;55841;53.392;10.086;2022-08-19T11:09:19;30.65;;;17.73;;
68825;SDS011;55841;53.392;10.086;2022-08-19T11:11:46;32.03;;;17.20;;
68825;SDS011;55841;53.392;10.086;2022-08-19T11:14:13;36.58;;;19.85;;
68825;SDS011;55841;53.392;10.086;2022-08-19T11:16:41;32.40;;;18.45;;
68825;SDS011;55841;53.392;10.086;2022-08-19T11:19:08;33.65;;;17.73;;
68825;SDS011;55841;53.392;10.086;2022-08-19T11:21:36;36.15;;;19.38;;
68825;SDS011;55841;53.392;10.086;2022-08-19T11:24:05;35.97;;;19.85;;
68825;SDS011;55841;53.392;10.086;2022-08-19T11:26:33;31.48;;;17.80;;
68825;SDS011;55841;53.392;10.086;2022-08-19T11:31:26;33.85;;;17.98;;
68825;SDS011;55841;53.392;10.086;2022-08-19T11:33:55;36.60;;;18.52;;
68825;SDS011;55841;53.392;10.086;2022-08-19T11:36:22;33.50;;;17.63;;
68825;SDS011;55841;53.392;10.086;2022-08-19T11:38:48;33.17;;;17.95;;
68825;SDS011;55841;53.392;10.086;2022-08-19T11:41:15;29.58;;;16.52;;
68825;SDS011;55841;53.392;10.086;2022-08-19T11:43:42;40.83;;;21.48;;
68825;SDS011;55841;53.392;10.086;2022-08-19T11:46:08;35.30;;;19.35;;
68825;SDS011;55841;53.392;10.086;2022-08-19T11:48:36;36.28;;;18.75;;
68825;SDS011;55841;53.392;10.086;2022-08-19T11:51:14;31.77;;;17.33;;
68825;SDS011;55841;53.392;10.086;2022-08-19T11:53:41;31.50;;;17.45;;
68825;SDS011;55841;53.392;10.086;2022-08-19T11:56:07;30.35;;;16.52;;
68825;SDS011;55841;53.392;10.086;2022-08-19T11:58:34;30.25;;;15.00;;
68825;SDS011;55841;53.392;10.086;2022-08-19T12:00:59;27.67;;;14.90;;
68825;SDS011;55841;53.392;10.086;2022-08-19T12:03:25;37.83;;;19.65;;
68825;SDS011;55841;53.392;10.086;2022-08-19T12:05:51;40.63;;;22.55;;
68825;SDS011;55841;53.392;10.086;2022-08-19T12:08:17;46.15;;;26.05;;
68825;SDS011;55841;53.392;10.086;2022-08-19T12:10:43;41.58;;;22.80;;
68825;SDS011;55841;53.392;10.086;2022-08-19T12:13:09;41.63;;;24.98;;
68825;SDS011;55841;53.392;10.086;2022-08-19T12:18:04;36.72;;;22.50;;
68825;SDS011;55841;53.392;10.086;2022-08-19T12:20:30;38.75;;;22.00;;
68825;SDS011;55841;53.392;10.086;2022-08-19T12:25:21;34.05;;;20.38;;
68825;SDS011;55841;53.392;10.086;2022-08-19T12:30:12;34.90;;;19.73;;
68825;SDS011;55841;53.392;10.086;2022-08-19T12:32:39;32.05;;;17.90;;
68825;SDS011;55841;53.392;10.086;2022-08-19T12:35:05;31.65;;;18.83;;
68825;SDS011;55841;53.392;10.086;2022-08-19T12:37:31;29.48;;;16.23;;
68825;SDS011;55841;53.392;10.086;2022-08-19T12:39:57;29.55;;;16.45;;
68825;SDS011;55841;53.392;10.086;2022-08-19T12:44:48;28.90;;;17.00;;
68825;SDS011;55841;53.392;10.086;2022-08-19T12:49:39;29.70;;;16.65;;
68825;SDS011;55841;53.392;10.086;2022-08-19T12:52:06;27.98;;;15.88;;
68825;SDS011;55841;53.392;10.086;2022-08-19T12:54:34;28.90;;;16.17;;
68825;SDS011;55841;53.392;10.086;2022-08-19T12:57:04;29.65;;;16.67;;
68825;SDS011;55841;53.392;10.086;2022-08-19T12:59:30;26.02;;;14.57;;
68825;SDS011;55841;53.392;10.086;2022-08-19T13:04:21;31.00;;;18.33;;
68825;SDS011;55841;53.392;10.086;2022-08-19T13:09:12;27.60;;;16.13;;
68825;SDS011;55841;53.392;10.086;2022-08-19T13:14:04;23.60;;;14.50;;
68825;SDS011;55841;53.392;10.086;2022-08-19T13:18:55;20.58;;;12.15;;
68825;SDS011;55841;53.392;10.086;2022-08-19T13:21:23;19.60;;;10.77;;
68825;SDS011;55841;53.392;10.086;2022-08-19T13:23:50;21.63;;;11.60;;
68825;SDS011;55841;53.392;10.086;2022-08-19T13:26:17;22.25;;;12.60;;
68825;SDS011;55841;53.392;10.086;2022-08-19T13:28:43;22.50;;;12.68;;
68825;SDS011;55841;53.392;10.086;2022-08-19T13:31:09;19.10;;;12.02;;
68825;SDS011;55841;53.392;10.086;2022-08-19T13:36:00;21.33;;;12.75;;
68825;SDS011;55841;53.392;10.086;2022-08-19T13:38:27;20.05;;;11.63;;
68825;SDS011;55841;53.392;10.086;2022-08-19T13:40:54;20.38;;;11.90;;
68825;SDS011;55841;53.392;10.086;2022-08-19T13:43:20;20.92;;;12.77;;
68825;SDS011;55841;53.392;10.086;2022-08-19T13:45:48;18.95;;;11.00;;
68825;SDS011;55841;53.392;10.086;2022-08-19T13:48:18;20.80;;;12.52;;
68825;SDS011;55841;53.392;10.086;2022-08-19T13:50:44;18.60;;;10.30;;
68825;SDS011;55841;53.392;10.086;2022-08-19T13:53:10;19.35;;;11.70;;
68825;SDS011;55841;53.392;10.086;2022-08-19T13:55:37;20.80;;;12.82;;
68825;SDS011;55841;53.392;10.086;2022-08-19T13:58:03;19.50;;;12.57;;
68825;SDS011;55841;53.392;10.086;2022-08-19T14:00:31;19.42;;;11.32;;
68825;SDS011;55841;53.392;10.086;2022-08-19T14:02:59;19.25;;;11.68;;
68825;SDS011;55841;53.392;10.086;2022-08-19T14:07:52;21.73;;;13.10;;
68825;SDS011;55841;53.392;10.086;2022-08-19T14:12:43;21.38;;;13.15;;
68825;SDS011;55841;53.392;10.086;2022-08-19T14:17:39;20.10;;;12.55;;
68825;SDS011;55841;53.392;10.086;2022-08-19T14:20:07;20.58;;;12.07;;
68825;SDS011;55841;53.392;10.086;2022-08-19T14:22:37;18.95;;;11.02;;
68825;SDS011;55841;53.392;10.086;2022-08-19T14:25:05;18.20;;;10.77;;
68825;SDS011;55841;53.392;10.086;2022-08-19T14:27:33;18.13;;;10.63;;
68825;SDS011;55841;53.392;10.086;2022-08-19T14:29:59;16.67;;;9.60;;
68825;SDS011;55841;53.392;10.086;2022-08-19T14:34:50;16.30;;;8.63;;
68825;SDS011;55841;53.392;10.086;2022-08-19T14:39:41;14.95;;;7.97;;
68825;SDS011;55841;53.392;10.086;2022-08-19T14:42:08;16.02;;;7.55;;
68825;SDS011;55841;53.392;10.086;2022-08-19T14:44:35;15.38;;;8.68;;
68825;SDS011;55841;53.392;10.086;2022-08-19T14:47:01;14.35;;;7.07;;
68825;SDS011;55841;53.392;10.086;2022-08-19T14:49:26;15.45;;;7.68;;
68825;SDS011;55841;53.392;10.086;2022-08-19T14:54:17;14.50;;;7.72;;
68825;SDS011;55841;53.392;10.086;2022-08-19T14:59:08;15.60;;;8.10;;
68825;SDS011;55841;53.392;10.086;2022-08-19T15:03:59;17.38;;;7.65;;
68825;SDS011;55841;53.392;10.086;2022-08-19T15:06:25;13.18;;;7.35;;
68825;SDS011;55841;53.392;10.086;2022-08-19T15:08:51;14.52;;;7.63;;
68825;SDS011;55841;53.392;10.086;2022-08-19T15:11:18;13.32;;;6.88;;
68825;SDS011;55841;53.392;10.086;2022-08-19T15:13:46;16.00;;;6.93;;
68825;SDS011;55841;53.392;10.086;2022-08-19T15:16:12;15.18;;;8.40;;
68825;SDS011;55841;53.392;10.086;2022-08-19T15:18:38;14.57;;;7.30;;
68825;SDS011;55841;53.392;10.086;2022-08-19T15:23:29;15.57;;;7.88;;